sensor_id;sensor_type;location;lat;lon;timestamp;P1;durP1;ratioP1;P2;durP2;ratioP2
27223;SDS011;14965;50.660;13.226;2023-02-28T00:01:20;12.55;;;6.10;;
27223;SDS011;14965;50.660;13.226;2023-02-28T00:03:47;14.90;;;6.70;;
27223;SDS011;14965;50.660;13.226;2023-02-28T00:06:19;10.05;;;6.32;;
27223;SDS011;14965;50.660;13.226;2023-02-28T00:08:47;11.93;;;6.50;;
27223;SDS011;14965;50.660;13.226;2023-02-28T00:11:16;11.52;;;6.72;;
27223;SDS011;14965;50.660;13.226;2023-02-28T00:13:45;11.85;;;6.20;;
27223;SDS011;14965;50.660;13.226;2023-02-28T00:16:19;12.20;;;6.65;;
27223;SDS011;14965;50.660;13.226;2023-02-28T00:18:50;12.20;;;6.25;;
27223;SDS011;14965;50.660;13.226;2023-02-28T00:21:19;13.32;;;6.60;;
27223;SDS011;14965;50.660;13.226;2023-02-28T00:23:47;12.20;;;6.63;;
27223;SDS011;14965;50.660;13.226;2023-02-28T00:26:20;15.90;;;7.20;;
27223;SDS011;14965;50.660;13.226;2023-02-28T00:28:52;10.80;;;6.80;;
27223;SDS011;14965;50.660;13.226;2023-02-28T00:31:24;13.35;;;6.60;;
27223;SDS011;14965;50.660;13.226;2023-02-28T00:33:54;12.70;;;6.30;;
27223;SDS011;14965;50.660;13.226;2023-02-28T00:36:27;13.98;;;6.97;;
27223;SDS011;14965;50.660;13.226;2023-02-28T00:39:01;11.57;;;6.30;;
27223;SDS011;14965;50.660;13.226;2023-02-28T00:41:40;15.05;;;6.35;;
27223;SDS011;14965;50.660;13.226;2023-02-28T00:44:12;12.18;;;6.43;;
27223;SDS011;14965;50.660;13.226;2023-02-28T00:46:46;10.73;;;6.53;;
27223;SDS011;14965;50.660;13.226;2023-02-28T00:49:20;13.80;;;6.13;;
27223;SDS011;14965;50.660;13.226;2023-02-28T00:51:50;16.40;;;6.75;;
27223;SDS011;14965;50.660;13.226;2023-02-28T00:54:21;15.07;;;6.50;;
27223;SDS011;14965;50.660;13.226;2023-02-28T00:56:53;12.13;;;7.00;;
27223;SDS011;14965;50.660;13.226;2023-02-28T00:59:22;14.05;;;6.80;;
27223;SDS011;14965;50.660;13.226;2023-02-28T01:01:57;10.90;;;6.28;;
27223;SDS011;14965;50.660;13.226;2023-02-28T01:04:27;8.93;;;5.80;;
27223;SDS011;14965;50.660;13.226;2023-02-28T01:06:57;11.43;;;6.90;;
27223;SDS011;14965;50.660;13.226;2023-02-28T01:09:33;16.25;;;7.30;;
27223;SDS011;14965;50.660;13.226;2023-02-28T01:14:37;13.88;;;6.35;;
27223;SDS011;14965;50.660;13.226;2023-02-28T01:17:06;11.93;;;6.65;;
27223;SDS011;14965;50.660;13.226;2023-02-28T01:19:34;14.30;;;7.25;;
27223;SDS011;14965;50.660;13.226;2023-02-28T01:22:02;12.90;;;7.10;;
27223;SDS011;14965;50.660;13.226;2023-02-28T01:24:31;14.20;;;7.35;;
27223;SDS011;14965;50.660;13.226;2023-02-28T01:26:59;14.65;;;8.52;;
27223;SDS011;14965;50.660;13.226;2023-02-28T01:29:28;15.80;;;8.23;;
27223;SDS011;14965;50.660;13.226;2023-02-28T01:31:56;12.85;;;8.63;;
27223;SDS011;14965;50.660;13.226;2023-02-28T01:34:25;15.13;;;9.07;;
27223;SDS011;14965;50.660;13.226;2023-02-28T01:36:54;15.00;;;8.48;;
27223;SDS011;14965;50.660;13.226;2023-02-28T01:39:21;14.40;;;8.55;;
27223;SDS011;14965;50.660;13.226;2023-02-28T01:41:48;14.40;;;8.02;;
27223;SDS011;14965;50.660;13.226;2023-02-28T01:47:48;15.45;;;7.90;;
27223;SDS011;14965;50.660;13.226;2023-02-28T01:50:22;16.20;;;9.27;;
27223;SDS011;14965;50.660;13.226;2023-02-28T01:52:59;17.15;;;9.05;;
27223;SDS011;14965;50.660;13.226;2023-02-28T01:55:34;17.05;;;8.20;;
27223;SDS011;14965;50.660;13.226;2023-02-28T01:58:04;14.77;;;8.65;;
27223;SDS011;14965;50.660;13.226;2023-02-28T02:00:38;14.75;;;8.57;;
27223;SDS011;14965;50.660;13.226;2023-02-28T02:03:11;15.68;;;8.63;;
27223;SDS011;14965;50.660;13.226;2023-02-28T02:05:45;14.00;;;8.60;;
27223;SDS011;14965;50.660;13.226;2023-02-28T02:08:20;14.68;;;7.82;;
27223;SDS011;14965;50.660;13.226;2023-02-28T02:10:57;15.73;;;7.93;;
27223;SDS011;14965;50.660;13.226;2023-02-28T02:13:50;14.07;;;7.90;;
27223;SDS011;14965;50.660;13.226;2023-02-28T02:16:59;14.57;;;7.50;;
27223;SDS011;14965;50.660;13.226;2023-02-28T02:32:53;13.13;;;7.28;;
27223;SDS011;14965;50.660;13.226;2023-02-28T02:36:21;13.30;;;6.90;;
27223;SDS011;14965;50.660;13.226;2023-02-28T02:39:01;12.05;;;6.90;;
27223;SDS011;14965;50.660;13.226;2023-02-28T02:41:45;15.90;;;7.15;;
27223;SDS011;14965;50.660;13.226;2023-02-28T02:44:25;13.55;;;7.32;;
27223;SDS011;14965;50.660;13.226;2023-02-28T02:47:10;12.07;;;6.93;;
27223;SDS011;14965;50.660;13.226;2023-02-28T02:49:43;14.73;;;8.18;;
27223;SDS011;14965;50.660;13.226;2023-02-28T02:52:28;18.33;;;8.77;;
27223;SDS011;14965;50.660;13.226;2023-02-28T02:55:12;28.58;;;10.30;;
27223;SDS011;14965;50.660;13.226;2023-02-28T02:57:45;25.60;;;10.10;;
27223;SDS011;14965;50.660;13.226;2023-02-28T03:00:26;26.90;;;10.80;;
27223;SDS011;14965;50.660;13.226;2023-02-28T03:03:03;27.27;;;10.50;;
27223;SDS011;14965;50.660;13.226;2023-02-28T03:05:36;32.80;;;13.13;;
27223;SDS011;14965;50.660;13.226;2023-02-28T03:08:13;30.65;;;12.13;;
27223;SDS011;14965;50.660;13.226;2023-02-28T03:10:41;30.52;;;12.20;;
27223;SDS011;14965;50.660;13.226;2023-02-28T03:13:18;33.28;;;13.20;;
27223;SDS011;14965;50.660;13.226;2023-02-28T03:16:35;36.38;;;13.27;;
27223;SDS011;14965;50.660;13.226;2023-02-28T03:19:29;40.55;;;14.52;;
27223;SDS011;14965;50.660;13.226;2023-02-28T03:22:24;24.00;;;10.82;;
27223;SDS011;14965;50.660;13.226;2023-02-28T03:25:16;22.80;;;10.15;;
27223;SDS011;14965;50.660;13.226;2023-02-28T03:28:00;16.08;;;8.55;;
27223;SDS011;14965;50.660;13.226;2023-02-28T03:30:39;13.68;;;8.13;;
27223;SDS011;14965;50.660;13.226;2023-02-28T03:33:15;14.38;;;8.35;;
27223;SDS011;14965;50.660;13.226;2023-02-28T03:35:47;13.93;;;7.45;;
27223;SDS011;14965;50.660;13.226;2023-02-28T03:38:20;13.27;;;7.43;;
27223;SDS011;14965;50.660;13.226;2023-02-28T03:40:58;14.30;;;7.15;;
27223;SDS011;14965;50.660;13.226;2023-02-28T03:43:40;15.90;;;7.57;;
27223;SDS011;14965;50.660;13.226;2023-02-28T03:46:14;14.00;;;7.57;;
27223;SDS011;14965;50.660;13.226;2023-02-28T03:48:48;13.30;;;7.60;;
27223;SDS011;14965;50.660;13.226;2023-02-28T03:51:21;13.65;;;7.75;;
27223;SDS011;14965;50.660;13.226;2023-02-28T03:53:52;13.40;;;8.48;;
27223;SDS011;14965;50.660;13.226;2023-02-28T03:56:27;17.65;;;9.35;;
27223;SDS011;14965;50.660;13.226;2023-02-28T03:59:00;14.70;;;9.15;;
27223;SDS011;14965;50.660;13.226;2023-02-28T04:01:38;15.32;;;7.78;;
27223;SDS011;14965;50.660;13.226;2023-02-28T04:04:09;12.75;;;7.90;;
27223;SDS011;14965;50.660;13.226;2023-02-28T04:06:38;14.63;;;7.82;;
27223;SDS011;14965;50.660;13.226;2023-02-28T04:09:07;13.63;;;7.85;;
27223;SDS011;14965;50.660;13.226;2023-02-28T04:11:38;14.20;;;7.65;;
27223;SDS011;14965;50.660;13.226;2023-02-28T04:14:08;15.32;;;8.18;;
27223;SDS011;14965;50.660;13.226;2023-02-28T04:19:04;15.57;;;8.90;;
27223;SDS011;14965;50.660;13.226;2023-02-28T04:21:34;18.05;;;9.25;;
27223;SDS011;14965;50.660;13.226;2023-02-28T04:24:03;14.70;;;9.00;;
27223;SDS011;14965;50.660;13.226;2023-02-28T04:26:34;17.60;;;9.27;;
27223;SDS011;14965;50.660;13.226;2023-02-28T04:29:04;18.83;;;9.30;;
27223;SDS011;14965;50.660;13.226;2023-02-28T04:31:32;19.13;;;10.10;;
27223;SDS011;14965;50.660;13.226;2023-02-28T04:33:59;20.35;;;10.73;;
27223;SDS011;14965;50.660;13.226;2023-02-28T04:36:26;20.33;;;10.55;;
27223;SDS011;14965;50.660;13.226;2023-02-28T04:38:53;27.92;;;14.93;;
27223;SDS011;14965;50.660;13.226;2023-02-28T04:41:21;33.58;;;15.82;;
27223;SDS011;14965;50.660;13.226;2023-02-28T04:43:52;30.10;;;15.05;;
27223;SDS011;14965;50.660;13.226;2023-02-28T04:48:47;46.65;;;22.02;;
27223;SDS011;14965;50.660;13.226;2023-02-28T04:51:15;50.00;;;24.27;;
27223;SDS011;14965;50.660;13.226;2023-02-28T04:53:44;41.38;;;20.30;;
27223;SDS011;14965;50.660;13.226;2023-02-28T04:56:12;31.80;;;14.75;;
27223;SDS011;14965;50.660;13.226;2023-02-28T04:58:42;28.60;;;14.27;;
27223;SDS011;14965;50.660;13.226;2023-02-28T05:01:19;29.03;;;14.07;;
27223;SDS011;14965;50.660;13.226;2023-02-28T05:03:50;24.95;;;12.82;;
27223;SDS011;14965;50.660;13.226;2023-02-28T05:08:47;24.90;;;12.10;;
27223;SDS011;14965;50.660;13.226;2023-02-28T05:11:17;24.75;;;12.27;;
27223;SDS011;14965;50.660;13.226;2023-02-28T05:13:47;27.50;;;14.00;;
27223;SDS011;14965;50.660;13.226;2023-02-28T05:16:17;22.55;;;13.60;;
27223;SDS011;14965;50.660;13.226;2023-02-28T05:18:45;25.58;;;13.65;;
27223;SDS011;14965;50.660;13.226;2023-02-28T05:21:23;26.83;;;14.48;;
27223;SDS011;14965;50.660;13.226;2023-02-28T05:23:54;25.40;;;13.82;;
27223;SDS011;14965;50.660;13.226;2023-02-28T05:26:24;52.90;;;27.55;;
27223;SDS011;14965;50.660;13.226;2023-02-28T05:28:53;37.28;;;19.50;;
27223;SDS011;14965;50.660;13.226;2023-02-28T05:31:23;71.20;;;38.08;;
27223;SDS011;14965;50.660;13.226;2023-02-28T05:33:50;32.10;;;16.30;;
27223;SDS011;14965;50.660;13.226;2023-02-28T05:36:18;25.23;;;13.90;;
27223;SDS011;14965;50.660;13.226;2023-02-28T05:38:47;26.92;;;14.05;;
27223;SDS011;14965;50.660;13.226;2023-02-28T05:41:16;26.92;;;14.77;;
27223;SDS011;14965;50.660;13.226;2023-02-28T05:43:44;30.95;;;14.65;;
27223;SDS011;14965;50.660;13.226;2023-02-28T05:48:45;29.17;;;13.73;;
27223;SDS011;14965;50.660;13.226;2023-02-28T05:51:14;27.77;;;13.68;;
27223;SDS011;14965;50.660;13.226;2023-02-28T05:53:42;31.02;;;14.48;;
27223;SDS011;14965;50.660;13.226;2023-02-28T05:56:09;33.00;;;16.45;;
27223;SDS011;14965;50.660;13.226;2023-02-28T05:58:35;28.02;;;15.18;;
27223;SDS011;14965;50.660;13.226;2023-02-28T06:03:49;27.15;;;14.38;;
27223;SDS011;14965;50.660;13.226;2023-02-28T06:06:19;35.13;;;17.77;;
27223;SDS011;14965;50.660;13.226;2023-02-28T06:22:30;33.65;;;18.05;;
27223;SDS011;14965;50.660;13.226;2023-02-28T06:25:04;37.10;;;18.33;;
27223;SDS011;14965;50.660;13.226;2023-02-28T06:27:56;36.80;;;19.25;;
27223;SDS011;14965;50.660;13.226;2023-02-28T06:30:38;42.03;;;21.63;;
27223;SDS011;14965;50.660;13.226;2023-02-28T06:33:14;45.63;;;20.88;;
27223;SDS011;14965;50.660;13.226;2023-02-28T06:35:49;48.15;;;23.55;;
27223;SDS011;14965;50.660;13.226;2023-02-28T06:38:20;50.83;;;24.80;;
27223;SDS011;14965;50.660;13.226;2023-02-28T06:40:53;57.63;;;27.38;;
27223;SDS011;14965;50.660;13.226;2023-02-28T06:43:22;68.25;;;32.30;;
27223;SDS011;14965;50.660;13.226;2023-02-28T06:45:50;72.22;;;32.03;;
27223;SDS011;14965;50.660;13.226;2023-02-28T06:48:19;68.57;;;32.75;;
27223;SDS011;14965;50.660;13.226;2023-02-28T06:50:49;93.38;;;39.47;;
27223;SDS011;14965;50.660;13.226;2023-02-28T06:53:15;99.20;;;42.30;;
27223;SDS011;14965;50.660;13.226;2023-02-28T06:55:45;117.13;;;46.95;;
27223;SDS011;14965;50.660;13.226;2023-02-28T06:58:11;117.25;;;47.33;;
27223;SDS011;14965;50.660;13.226;2023-02-28T07:00:39;99.70;;;45.65;;
27223;SDS011;14965;50.660;13.226;2023-02-28T07:03:05;107.13;;;47.42;;
27223;SDS011;14965;50.660;13.226;2023-02-28T07:05:31;108.80;;;48.45;;
27223;SDS011;14965;50.660;13.226;2023-02-28T07:08:00;99.47;;;46.60;;
27223;SDS011;14965;50.660;13.226;2023-02-28T07:10:27;96.18;;;45.58;;
27223;SDS011;14965;50.660;13.226;2023-02-28T07:12:53;89.15;;;44.85;;
27223;SDS011;14965;50.660;13.226;2023-02-28T07:15:19;90.13;;;43.58;;
27223;SDS011;14965;50.660;13.226;2023-02-28T07:17:45;86.50;;;42.78;;
27223;SDS011;14965;50.660;13.226;2023-02-28T07:20:12;80.03;;;40.22;;
27223;SDS011;14965;50.660;13.226;2023-02-28T07:22:38;78.57;;;41.00;;
27223;SDS011;14965;50.660;13.226;2023-02-28T07:25:06;82.63;;;40.45;;
27223;SDS011;14965;50.660;13.226;2023-02-28T07:27:35;70.78;;;36.55;;
27223;SDS011;14965;50.660;13.226;2023-02-28T07:30:01;61.67;;;32.10;;
27223;SDS011;14965;50.660;13.226;2023-02-28T07:32:28;55.30;;;30.00;;
27223;SDS011;14965;50.660;13.226;2023-02-28T07:34:54;57.15;;;27.50;;
27223;SDS011;14965;50.660;13.226;2023-02-28T07:37:20;43.20;;;23.10;;
27223;SDS011;14965;50.660;13.226;2023-02-28T07:39:47;45.95;;;22.20;;
27223;SDS011;14965;50.660;13.226;2023-02-28T07:42:13;40.85;;;21.85;;
27223;SDS011;14965;50.660;13.226;2023-02-28T07:44:40;42.45;;;23.73;;
27223;SDS011;14965;50.660;13.226;2023-02-28T07:47:19;39.63;;;20.77;;
27223;SDS011;14965;50.660;13.226;2023-02-28T07:49:45;32.42;;;16.27;;
27223;SDS011;14965;50.660;13.226;2023-02-28T07:52:11;34.75;;;18.45;;
27223;SDS011;14965;50.660;13.226;2023-02-28T07:54:37;33.20;;;16.85;;
27223;SDS011;14965;50.660;13.226;2023-02-28T07:57:03;30.98;;;14.90;;
27223;SDS011;14965;50.660;13.226;2023-02-28T07:59:30;22.58;;;12.15;;
27223;SDS011;14965;50.660;13.226;2023-02-28T08:01:58;31.27;;;16.10;;
27223;SDS011;14965;50.660;13.226;2023-02-28T08:04:24;27.65;;;14.07;;
27223;SDS011;14965;50.660;13.226;2023-02-28T08:06:51;24.17;;;12.98;;
27223;SDS011;14965;50.660;13.226;2023-02-28T08:09:19;23.27;;;11.68;;
27223;SDS011;14965;50.660;13.226;2023-02-28T08:11:45;21.58;;;11.10;;
27223;SDS011;14965;50.660;13.226;2023-02-28T08:14:24;18.27;;;10.18;;
27223;SDS011;14965;50.660;13.226;2023-02-28T08:17:39;18.95;;;10.00;;
27223;SDS011;14965;50.660;13.226;2023-02-28T08:28:04;17.13;;;8.35;;
27223;SDS011;14965;50.660;13.226;2023-02-28T08:30:31;15.88;;;8.52;;
27223;SDS011;14965;50.660;13.226;2023-02-28T08:33:00;19.17;;;9.02;;
27223;SDS011;14965;50.660;13.226;2023-02-28T08:35:26;14.25;;;8.40;;
27223;SDS011;14965;50.660;13.226;2023-02-28T08:37:52;16.15;;;8.50;;
27223;SDS011;14965;50.660;13.226;2023-02-28T08:40:19;19.67;;;9.00;;
27223;SDS011;14965;50.660;13.226;2023-02-28T08:42:49;17.60;;;10.23;;
27223;SDS011;14965;50.660;13.226;2023-02-28T08:45:16;18.42;;;9.20;;
27223;SDS011;14965;50.660;13.226;2023-02-28T08:56:10;19.73;;;9.15;;
27223;SDS011;14965;50.660;13.226;2023-02-28T10:55:27;20.97;;;11.03;;
27223;SDS011;14965;50.660;13.226;2023-02-28T10:57:54;18.43;;;11.27;;
27223;SDS011;14965;50.660;13.226;2023-02-28T11:00:21;24.02;;;11.55;;
27223;SDS011;14965;50.660;13.226;2023-02-28T11:05:25;23.45;;;11.75;;
27223;SDS011;14965;50.660;13.226;2023-02-28T11:07:55;23.70;;;14.02;;
27223;SDS011;14965;50.660;13.226;2023-02-28T11:10:30;20.35;;;11.45;;
27223;SDS011;14965;50.660;13.226;2023-02-28T11:15:24;21.02;;;11.40;;
27223;SDS011;14965;50.660;13.226;2023-02-28T11:36:44;20.63;;;10.65;;
27223;SDS011;14965;50.660;13.226;2023-02-28T11:39:11;19.67;;;11.18;;
27223;SDS011;14965;50.660;13.226;2023-02-28T11:41:43;21.60;;;11.95;;
27223;SDS011;14965;50.660;13.226;2023-02-28T11:44:35;20.92;;;11.63;;
27223;SDS011;14965;50.660;13.226;2023-02-28T11:47:17;19.98;;;11.32;;
27223;SDS011;14965;50.660;13.226;2023-02-28T11:50:00;23.13;;;11.95;;
27223;SDS011;14965;50.660;13.226;2023-02-28T11:52:45;21.80;;;11.80;;
27223;SDS011;14965;50.660;13.226;2023-02-28T11:55:20;23.88;;;11.05;;
27223;SDS011;14965;50.660;13.226;2023-02-28T11:58:05;20.27;;;10.88;;
27223;SDS011;14965;50.660;13.226;2023-02-28T12:01:07;19.70;;;10.55;;
27223;SDS011;14965;50.660;13.226;2023-02-28T12:09:10;20.25;;;11.95;;
27223;SDS011;14965;50.660;13.226;2023-02-28T12:11:59;18.88;;;11.75;;
27223;SDS011;14965;50.660;13.226;2023-02-28T12:17:59;19.67;;;10.73;;
27223;SDS011;14965;50.660;13.226;2023-02-28T12:20:59;21.98;;;11.35;;
27223;SDS011;14965;50.660;13.226;2023-02-28T12:23:49;18.75;;;11.38;;
27223;SDS011;14965;50.660;13.226;2023-02-28T12:26:50;22.45;;;12.38;;
27223;SDS011;14965;50.660;13.226;2023-02-28T12:29:30;21.23;;;11.98;;
27223;SDS011;14965;50.660;13.226;2023-02-28T12:34:44;22.00;;;12.75;;
27223;SDS011;14965;50.660;13.226;2023-02-28T12:37:16;19.50;;;12.57;;
27223;SDS011;14965;50.660;13.226;2023-02-28T12:39:59;19.35;;;11.85;;
27223;SDS011;14965;50.660;13.226;2023-02-28T12:42:37;20.92;;;11.82;;
27223;SDS011;14965;50.660;13.226;2023-02-28T12:45:10;18.60;;;11.70;;
27223;SDS011;14965;50.660;13.226;2023-02-28T12:47:46;24.67;;;13.13;;
27223;SDS011;14965;50.660;13.226;2023-02-28T12:50:21;25.92;;;12.10;;
27223;SDS011;14965;50.660;13.226;2023-02-28T12:52:53;21.58;;;12.38;;
27223;SDS011;14965;50.660;13.226;2023-02-28T12:55:31;20.63;;;11.80;;
27223;SDS011;14965;50.660;13.226;2023-02-28T12:58:10;26.20;;;12.13;;
27223;SDS011;14965;50.660;13.226;2023-02-28T13:00:46;24.23;;;12.55;;
27223;SDS011;14965;50.660;13.226;2023-02-28T13:03:43;22.92;;;11.80;;
27223;SDS011;14965;50.660;13.226;2023-02-28T13:06:52;21.02;;;12.00;;
27223;SDS011;14965;50.660;13.226;2023-02-28T13:09:52;22.50;;;12.57;;
27223;SDS011;14965;50.660;13.226;2023-02-28T13:12:24;21.80;;;12.40;;
27223;SDS011;14965;50.660;13.226;2023-02-28T13:15:01;21.42;;;13.05;;
27223;SDS011;14965;50.660;13.226;2023-02-28T13:17:34;23.17;;;14.20;;
27223;SDS011;14965;50.660;13.226;2023-02-28T13:20:13;25.95;;;13.45;;
27223;SDS011;14965;50.660;13.226;2023-02-28T13:22:47;21.63;;;12.60;;
27223;SDS011;14965;50.660;13.226;2023-02-28T13:35:13;21.35;;;12.00;;
27223;SDS011;14965;50.660;13.226;2023-02-28T13:38:14;22.08;;;12.40;;
27223;SDS011;14965;50.660;13.226;2023-02-28T13:40:47;22.30;;;12.93;;
27223;SDS011;14965;50.660;13.226;2023-02-28T13:43:15;18.45;;;11.80;;
27223;SDS011;14965;50.660;13.226;2023-02-28T13:48:46;22.90;;;13.50;;
27223;SDS011;14965;50.660;13.226;2023-02-28T13:51:28;26.00;;;14.10;;
27223;SDS011;14965;50.660;13.226;2023-02-28T13:54:12;22.70;;;14.68;;
27223;SDS011;14965;50.660;13.226;2023-02-28T13:56:56;22.48;;;14.10;;
27223;SDS011;14965;50.660;13.226;2023-02-28T13:59:43;27.48;;;14.48;;
27223;SDS011;14965;50.660;13.226;2023-02-28T14:02:34;25.02;;;13.85;;
27223;SDS011;14965;50.660;13.226;2023-02-28T14:05:26;28.58;;;14.82;;
27223;SDS011;14965;50.660;13.226;2023-02-28T14:07:55;24.35;;;14.27;;
27223;SDS011;14965;50.660;13.226;2023-02-28T14:10:25;26.88;;;14.85;;
27223;SDS011;14965;50.660;13.226;2023-02-28T14:12:57;26.00;;;15.23;;
27223;SDS011;14965;50.660;13.226;2023-02-28T14:18:25;26.33;;;15.35;;
27223;SDS011;14965;50.660;13.226;2023-02-28T14:21:01;25.77;;;15.75;;
27223;SDS011;14965;50.660;13.226;2023-02-28T14:30:35;24.58;;;14.82;;
27223;SDS011;14965;50.660;13.226;2023-02-28T14:33:20;27.92;;;16.63;;
27223;SDS011;14965;50.660;13.226;2023-02-28T14:36:37;28.05;;;14.95;;
27223;SDS011;14965;50.660;13.226;2023-02-28T14:40:03;28.60;;;16.67;;
27223;SDS011;14965;50.660;13.226;2023-02-28T14:43:05;29.30;;;15.82;;
27223;SDS011;14965;50.660;13.226;2023-02-28T14:45:50;60.28;;;27.83;;
27223;SDS011;14965;50.660;13.226;2023-02-28T14:48:51;35.92;;;19.55;;
27223;SDS011;14965;50.660;13.226;2023-02-28T14:51:29;42.78;;;22.27;;
27223;SDS011;14965;50.660;13.226;2023-02-28T14:54:17;29.60;;;15.88;;
27223;SDS011;14965;50.660;13.226;2023-02-28T15:40:43;29.83;;;15.23;;
27223;SDS011;14965;50.660;13.226;2023-02-28T15:57:39;26.52;;;14.75;;
27223;SDS011;14965;50.660;13.226;2023-02-28T16:36:11;25.60;;;15.05;;
27223;SDS011;14965;50.660;13.226;2023-02-28T16:38:41;27.10;;;16.13;;
27223;SDS011;14965;50.660;13.226;2023-02-28T16:41:09;27.13;;;15.65;;
27223;SDS011;14965;50.660;13.226;2023-02-28T16:43:43;29.30;;;17.48;;
27223;SDS011;14965;50.660;13.226;2023-02-28T16:46:14;26.27;;;16.48;;
27223;SDS011;14965;50.660;13.226;2023-02-28T16:51:26;27.95;;;17.08;;
27223;SDS011;14965;50.660;13.226;2023-02-28T16:53:53;34.67;;;18.30;;
27223;SDS011;14965;50.660;13.226;2023-02-28T16:56:20;28.92;;;17.05;;
27223;SDS011;14965;50.660;13.226;2023-02-28T16:58:51;24.95;;;15.70;;
27223;SDS011;14965;50.660;13.226;2023-02-28T17:01:26;30.27;;;17.63;;
27223;SDS011;14965;50.660;13.226;2023-02-28T17:03:53;30.45;;;17.60;;
27223;SDS011;14965;50.660;13.226;2023-02-28T17:06:21;28.15;;;16.85;;
27223;SDS011;14965;50.660;13.226;2023-02-28T17:08:53;35.28;;;18.85;;
27223;SDS011;14965;50.660;13.226;2023-02-28T17:11:20;35.78;;;18.55;;
27223;SDS011;14965;50.660;13.226;2023-02-28T17:13:48;35.50;;;19.63;;
27223;SDS011;14965;50.660;13.226;2023-02-28T17:16:17;35.35;;;21.30;;
27223;SDS011;14965;50.660;13.226;2023-02-28T17:18:56;33.90;;;19.27;;
27223;SDS011;14965;50.660;13.226;2023-02-28T17:21:27;35.88;;;18.98;;
27223;SDS011;14965;50.660;13.226;2023-02-28T17:23:55;38.85;;;20.05;;
27223;SDS011;14965;50.660;13.226;2023-02-28T17:42:57;43.60;;;24.13;;
27223;SDS011;14965;50.660;13.226;2023-02-28T17:47:27;51.00;;;26.55;;
27223;SDS011;14965;50.660;13.226;2023-02-28T17:49:39;51.58;;;26.10;;
27223;SDS011;14965;50.660;13.226;2023-02-28T17:52:28;43.45;;;22.00;;
27223;SDS011;14965;50.660;13.226;2023-02-28T17:55:03;45.03;;;22.88;;
27223;SDS011;14965;50.660;13.226;2023-02-28T17:57:30;42.95;;;23.83;;
27223;SDS011;14965;50.660;13.226;2023-02-28T18:00:00;45.28;;;25.02;;
27223;SDS011;14965;50.660;13.226;2023-02-28T18:02:30;41.30;;;22.45;;
27223;SDS011;14965;50.660;13.226;2023-02-28T18:04:56;43.10;;;22.90;;
27223;SDS011;14965;50.660;13.226;2023-02-28T18:07:22;47.83;;;24.13;;
27223;SDS011;14965;50.660;13.226;2023-02-28T18:09:50;44.13;;;23.65;;
27223;SDS011;14965;50.660;13.226;2023-02-28T18:12:19;45.75;;;23.27;;
27223;SDS011;14965;50.660;13.226;2023-02-28T18:14:57;44.30;;;22.87;;
27223;SDS011;14965;50.660;13.226;2023-02-28T18:17:34;40.30;;;21.30;;
27223;SDS011;14965;50.660;13.226;2023-02-28T18:24:03;47.95;;;23.75;;
27223;SDS011;14965;50.660;13.226;2023-02-28T18:26:52;50.35;;;25.65;;
27223;SDS011;14965;50.660;13.226;2023-02-28T18:29:50;48.40;;;23.95;;
27223;SDS011;14965;50.660;13.226;2023-02-28T18:32:28;48.20;;;25.02;;
27223;SDS011;14965;50.660;13.226;2023-02-28T18:35:17;48.38;;;25.90;;
27223;SDS011;14965;50.660;13.226;2023-02-28T18:38:42;47.08;;;25.10;;
27223;SDS011;14965;50.660;13.226;2023-02-28T19:20:25;86.95;;;39.92;;
27223;SDS011;14965;50.660;13.226;2023-02-28T19:34:12;68.13;;;32.00;;
27223;SDS011;14965;50.660;13.226;2023-02-28T19:36:58;70.80;;;34.40;;
27223;SDS011;14965;50.660;13.226;2023-02-28T19:39:30;74.25;;;36.58;;
27223;SDS011;14965;50.660;13.226;2023-02-28T19:42:08;102.78;;;48.65;;
27223;SDS011;14965;50.660;13.226;2023-02-28T19:45:06;101.03;;;49.40;;
27223;SDS011;14965;50.660;13.226;2023-02-28T19:48:17;107.20;;;48.08;;
27223;SDS011;14965;50.660;13.226;2023-02-28T19:51:05;89.68;;;43.42;;
27223;SDS011;14965;50.660;13.226;2023-02-28T19:57:24;63.95;;;32.38;;
27223;SDS011;14965;50.660;13.226;2023-02-28T20:00:52;92.65;;;44.60;;
27223;SDS011;14965;50.660;13.226;2023-02-28T20:03:47;86.00;;;43.13;;
27223;SDS011;14965;50.660;13.226;2023-02-28T20:06:48;87.78;;;43.90;;
27223;SDS011;14965;50.660;13.226;2023-02-28T20:09:39;88.43;;;44.55;;
27223;SDS011;14965;50.660;13.226;2023-02-28T20:12:19;85.25;;;43.35;;
27223;SDS011;14965;50.660;13.226;2023-02-28T20:15:15;80.63;;;40.83;;
27223;SDS011;14965;50.660;13.226;2023-02-28T20:17:47;74.88;;;38.83;;
27223;SDS011;14965;50.660;13.226;2023-02-28T20:20:22;76.65;;;39.53;;
27223;SDS011;14965;50.660;13.226;2023-02-28T20:23:03;72.10;;;37.53;;
27223;SDS011;14965;50.660;13.226;2023-02-28T20:26:01;67.15;;;35.83;;
27223;SDS011;14965;50.660;13.226;2023-02-28T20:28:45;76.55;;;39.45;;
27223;SDS011;14965;50.660;13.226;2023-02-28T20:31:25;87.65;;;45.42;;
27223;SDS011;14965;50.660;13.226;2023-02-28T20:34:01;68.72;;;33.88;;
27223;SDS011;14965;50.660;13.226;2023-02-28T20:36:38;66.75;;;32.75;;
27223;SDS011;14965;50.660;13.226;2023-02-28T20:39:20;56.28;;;29.45;;
27223;SDS011;14965;50.660;13.226;2023-02-28T20:42:14;70.78;;;31.88;;
27223;SDS011;14965;50.660;13.226;2023-02-28T20:45:08;61.45;;;29.50;;
27223;SDS011;14965;50.660;13.226;2023-02-28T20:47:44;65.32;;;32.80;;
27223;SDS011;14965;50.660;13.226;2023-02-28T20:50:14;61.42;;;30.00;;
27223;SDS011;14965;50.660;13.226;2023-02-28T20:52:55;65.82;;;31.75;;
27223;SDS011;14965;50.660;13.226;2023-02-28T20:55:32;65.38;;;32.15;;
27223;SDS011;14965;50.660;13.226;2023-02-28T20:58:08;68.93;;;32.50;;
27223;SDS011;14965;50.660;13.226;2023-02-28T21:00:44;85.45;;;38.30;;
27223;SDS011;14965;50.660;13.226;2023-02-28T21:03:26;79.05;;;38.08;;
27223;SDS011;14965;50.660;13.226;2023-02-28T21:05:59;82.35;;;35.95;;
27223;SDS011;14965;50.660;13.226;2023-02-28T21:08:28;81.20;;;35.25;;
27223;SDS011;14965;50.660;13.226;2023-02-28T21:10:56;79.82;;;35.10;;
27223;SDS011;14965;50.660;13.226;2023-02-28T21:13:34;98.13;;;41.10;;
27223;SDS011;14965;50.660;13.226;2023-02-28T21:16:04;107.82;;;43.00;;
27223;SDS011;14965;50.660;13.226;2023-02-28T21:18:42;142.88;;;56.45;;
27223;SDS011;14965;50.660;13.226;2023-02-28T22:20:44;56.80;;;25.70;;
27223;SDS011;14965;50.660;13.226;2023-02-28T22:27:48;47.35;;;21.30;;
27223;SDS011;14965;50.660;13.226;2023-02-28T22:32:10;50.20;;;23.25;;
27223;SDS011;14965;50.660;13.226;2023-02-28T22:34:45;52.97;;;23.48;;
27223;SDS011;14965;50.660;13.226;2023-02-28T22:37:43;46.38;;;22.25;;
27223;SDS011;14965;50.660;13.226;2023-02-28T22:47:09;37.67;;;18.77;;
27223;SDS011;14965;50.660;13.226;2023-02-28T22:50:50;34.35;;;17.90;;
27223;SDS011;14965;50.660;13.226;2023-02-28T22:56:47;36.50;;;18.20;;
27223;SDS011;14965;50.660;13.226;2023-02-28T22:59:50;35.67;;;18.40;;
27223;SDS011;14965;50.660;13.226;2023-02-28T23:02:37;34.67;;;17.23;;
27223;SDS011;14965;50.660;13.226;2023-02-28T23:18:20;28.60;;;15.15;;
27223;SDS011;14965;50.660;13.226;2023-02-28T23:21:11;30.13;;;14.00;;